Time;durP1;ratioP1;P1;durP2;ratioP2;P2;SDS_P1;SDS_P2;PMS_P1;PMS_P2;Temp;Humidity;BMP_temperature;BMP_pressure;BME280_temperature;BME280_humidity;BME280_pressure;Samples;Min_cycle;Max_cycle;Signal;HPM_P1;HPM_P2
2021/09/16 00:00:42;;;;;;;5.82;4.70;;;;;;;10.57;81.21;102220.69;6190105;28;20424;-73
2021/09/16 00:03:47;;;;;;;7.40;4.40;;;;;;;10.41;79.47;102218.06;6190047;28;20536;-73
2021/09/16 00:06:52;;;;;;;6.05;4.35;;;;;;;10.52;79.74;102224.97;6190011;28;20194;-74
2021/09/16 00:09:56;;;;;;;5.43;4.50;;;;;;;10.44;79.82;102214.97;6191280;28;20187;-73
2021/09/16 00:13:01;;;;;;;8.70;4.38;;;;;;;10.42;79.64;102219.78;6189971;28;20191;-73
2021/09/16 00:16:07;;;;;;;5.53;4.07;;;;;;;10.33;79.79;102226.31;6191342;28;20222;-74
2021/09/16 00:19:12;;;;;;;5.90;4.25;;;;;;;10.24;80.31;102221.09;6189885;28;20479;-73
2021/09/16 00:22:18;;;;;;;6.80;4.50;;;;;;;10.34;79.67;102211.66;6190710;28;20242;-73
2021/09/16 00:25:23;;;;;;;5.32;3.85;;;;;;;10.45;80.34;102213.09;6190229;28;20250;-73
2021/09/16 00:28:27;;;;;;;6.63;4.25;;;;;;;10.50;80.42;102216.13;6189816;28;20250;-73
2021/09/16 00:31:31;;;;;;;4.55;3.72;;;;;;;10.48;79.43;102207.25;6189553;28;20222;-73
2021/09/16 00:34:36;;;;;;;13.02;4.28;;;;;;;10.45;79.76;102205.75;6190911;28;20187;-73
2021/09/16 00:37:42;;;;;;;5.05;4.28;;;;;;;10.42;80.73;102210.75;6190404;28;20259;-73
2021/09/16 00:40:46;;;;;;;5.78;4.13;;;;;;;10.47;80.27;102211.03;6190357;28;20254;-73
2021/09/16 00:43:50;;;;;;;12.55;4.65;;;;;;;10.42;80.00;102208.00;6189350;28;20448;-73
2021/09/16 00:46:56;;;;;;;4.25;3.85;;;;;;;10.47;80.74;102211.03;6189574;28;20319;-73
2021/09/16 00:50:02;;;;;;;4.45;4.15;;;;;;;10.42;80.59;102202.56;6189201;28;20209;-73
2021/09/16 00:53:09;;;;;;;8.20;4.40;;;;;;;10.45;80.70;102207.66;6189425;28;20483;-73
2021/09/16 00:56:14;;;;;;;4.10;3.80;;;;;;;10.35;81.17;102209.78;6189039;28;20448;-73
2021/09/16 00:59:22;;;;;;;8.43;3.83;;;;;;;10.40;81.02;102194.53;6189977;28;20187;-74
2021/09/16 01:02:28;;;;;;;8.30;3.50;;;;;;;10.33;82.41;102198.19;6200739;23;20233;-72
2021/09/16 01:05:32;;;;;;;4.72;3.65;;;;;;;10.56;81.57;102199.00;6237988;28;20217;-72
2021/09/16 01:08:39;;;;;;;3.22;3.13;;;;;;;10.38;82.56;102201.19;6238146;28;20186;-72
2021/09/16 01:11:46;;;;;;;6.72;3.15;;;;;;;10.25;83.72;102195.50;6238054;28;20197;-72
2021/09/16 01:14:50;;;;;;;3.75;3.40;;;;;;;10.30;84.40;102193.94;6237544;28;20192;-72
2021/09/16 01:17:55;;;;;;;3.63;3.33;;;;;;;10.38;83.89;102201.19;6238229;28;20185;-72
2021/09/16 01:20:59;;;;;;;2.60;2.50;;;;;;;10.32;84.82;102201.94;6236877;28;20493;-72
2021/09/16 01:24:05;;;;;;;2.05;2.05;;;;;;;10.25;85.64;102195.50;6238108;28;20295;-71
2021/09/16 01:27:10;;;;;;;2.20;2.20;;;;;;;10.30;85.66;102198.53;6236914;28;20392;-71
2021/09/16 01:30:15;;;;;;;2.13;2.13;;;;;;;10.28;85.95;102200.59;6238153;28;20193;-71
2021/09/16 01:33:19;;;;;;;2.20;2.10;;;;;;;10.28;85.95;102200.59;6236634;28;20189;-72
2021/09/16 01:36:23;;;;;;;2.20;2.20;;;;;;;10.29;86.12;102207.78;6237409;28;20192;-71
2021/09/16 01:39:31;;;;;;;3.42;2.20;;;;;;;10.34;85.94;102205.34;6237894;28;20191;-71
2021/09/16 01:42:35;;;;;;;2.10;2.10;;;;;;;10.30;86.38;102193.06;6237556;28;20210;-71
2021/09/16 01:45:39;;;;;;;2.00;2.00;;;;;;;10.35;86.06;102186.03;6236617;28;20186;-72
2021/09/16 01:48:43;;;;;;;2.45;2.35;;;;;;;10.35;86.25;102174.31;6237488;28;20186;-72
2021/09/16 01:51:48;;;;;;;2.22;2.20;;;;;;;10.41;85.55;102181.75;6237871;28;20189;-72
2021/09/16 01:54:54;;;;;;;2.25;2.15;;;;;;;10.29;86.09;102175.03;6237775;28;20217;-71
2021/09/16 01:57:58;;;;;;;2.13;2.03;;;;;;;10.38;86.62;102173.91;6237698;28;20192;-71
2021/09/16 02:01:02;;;;;;;1.70;1.70;;;;;;;10.39;86.11;102164.72;6237218;28;20192;-72
2021/09/16 02:04:07;;;;;;;2.13;2.13;;;;;;;10.42;86.29;102161.63;6216547;28;20237;-72
2021/09/16 02:07:11;;;;;;;2.20;2.15;;;;;;;10.44;86.20;102156.81;6212961;28;20209;-71
2021/09/16 02:10:16;;;;;;;1.80;1.80;;;;;;;10.33;87.08;102159.97;6212911;28;20191;-71
2021/09/16 02:13:28;;;;;;;2.08;2.00;;;;;;;10.26;87.53;102159.03;6211833;28;20213;-71
2021/09/16 02:16:32;;;;;;;1.70;1.70;;;;;;;10.28;88.01;102152.34;6211787;28;20350;-71
2021/09/16 02:19:36;;;;;;;2.40;2.30;;;;;;;10.38;87.63;102146.63;6212732;28;20189;-71
2021/09/16 02:22:40;;;;;;;2.25;2.15;;;;;;;10.30;88.75;102141.25;6211612;28;20517;-71
2021/09/16 02:25:46;;;;;;;2.25;2.20;;;;;;;10.42;88.47;102147.97;6212602;28;20249;-72
2021/09/16 02:28:50;;;;;;;1.90;1.90;;;;;;;10.31;89.83;102135.63;6213250;28;20237;-72
2021/09/16 02:31:54;;;;;;;2.05;2.05;;;;;;;10.25;90.14;102132.78;6212503;28;20265;-72
2021/09/16 02:34:58;;;;;;;2.15;2.15;;;;;;;10.25;90.03;102130.03;6211575;28;20560;-72
2021/09/16 02:38:04;;;;;;;3.45;2.22;;;;;;;10.30;89.92;102133.06;6212121;28;20190;-72
2021/09/16 02:41:10;;;;;;;2.28;2.05;;;;;;;10.35;89.85;102126.03;6212790;28;20194;-72
2021/09/16 02:44:14;;;;;;;2.03;2.03;;;;;;;10.54;88.98;102124.66;6212718;28;20241;-72
2021/09/16 02:47:23;;;;;;;2.03;2.03;;;;;;;10.58;88.88;102131.44;6214873;28;20187;-72
2021/09/16 02:50:27;;;;;;;5.18;2.20;;;;;;;10.63;88.65;102139.94;6216990;28;20193;-72
2021/09/16 02:53:31;;;;;;;2.10;2.10;;;;;;;10.52;89.10;102132.19;6215819;28;20505;-72
2021/09/16 02:56:37;;;;;;;1.85;1.83;;;;;;;10.73;88.28;102131.47;6216782;28;20194;-72
2021/09/16 02:59:41;;;;;;;1.83;1.77;;;;;;;10.56;89.44;102128.03;6215621;28;20485;-72
2021/09/16 03:02:46;;;;;;;2.08;2.08;;;;;;;10.45;89.95;102126.63;6226132;28;20237;-72
2021/09/16 03:05:50;;;;;;;2.05;1.90;;;;;;;10.59;89.99;102122.22;6239768;28;20493;-72
2021/09/16 03:08:54;;;;;;;3.88;2.13;;;;;;;10.60;89.85;102127.50;6241298;28;20191;-72
2021/09/16 03:12:02;;;;;;;1.90;1.90;;;;;;;10.83;88.48;102130.16;6240740;28;20186;-72
2021/09/16 03:15:07;;;;;;;1.98;1.98;;;;;;;10.90;87.80;102120.19;6239742;28;20476;-72
2021/09/16 03:18:12;;;;;;;2.22;2.00;;;;;;;10.86;87.09;102118.84;6239708;28;20453;-72
2021/09/16 03:21:16;;;;;;;2.22;2.08;;;;;;;10.87;86.46;102109.63;6240822;28;20232;-72
2021/09/16 03:24:20;;;;;;;2.22;2.20;;;;;;;10.87;87.71;102112.38;6239451;28;20494;-72
2021/09/16 03:27:26;;;;;;;2.92;2.17;;;;;;;10.82;87.72;102117.53;6239395;28;20248;-72
2021/09/16 03:30:30;;;;;;;1.90;1.90;;;;;;;10.88;87.03;102111.34;6240316;28;20182;-72
2021/09/16 03:33:34;;;;;;;2.22;2.03;;;;;;;10.88;86.83;102114.06;6240575;28;20196;-72
2021/09/16 03:36:39;;;;;;;1.90;1.80;;;;;;;10.95;87.57;102106.81;6239209;28;20485;-72
2021/09/16 03:39:43;;;;;;;2.17;2.17;;;;;;;11.06;86.32;102098.16;6240520;28;20248;-73
2021/09/16 03:42:50;;;;;;;2.00;2.00;;;;;;;10.90;87.27;102098.34;6239742;28;20193;-72
2021/09/16 03:45:55;;;;;;;2.03;1.92;;;;;;;10.87;88.10;102097.84;6240234;28;20253;-72
2021/09/16 03:48:59;;;;;;;2.10;2.08;;;;;;;11.03;88.03;102103.13;6238897;28;20519;-72
2021/09/16 03:52:03;;;;;;;1.95;1.95;;;;;;;11.06;87.70;102098.16;6240127;28;20190;-72
2021/09/16 03:55:09;;;;;;;1.98;1.95;;;;;;;10.93;87.35;102091.66;6240101;28;20190;-72
2021/09/16 03:58:17;;;;;;;2.30;2.10;;;;;;;10.88;87.00;102089.50;6238333;28;20380;-72
2021/09/16 04:01:22;;;;;;;2.00;1.92;;;;;;;11.00;86.87;102093.44;6239321;28;20277;-73
2021/09/16 04:04:27;;;;;;;2.03;2.03;;;;;;;10.95;87.24;102090.44;6239616;28;20237;-72
2021/09/16 04:07:31;;;;;;;1.95;1.95;;;;;;;11.03;87.78;102079.41;6239524;28;20249;-72
2021/09/16 04:11:28;;;;;;;2.00;2.00;;;;;;;10.94;88.21;102080.53;6238484;28;20225;-72
2021/09/16 04:14:49;;;;;;;1.83;1.83;;;;;;;10.98;87.62;102079.13;6239650;28;20190;-72
2021/09/16 04:18:10;;;;;;;2.15;2.05;;;;;;;11.05;88.24;102074.59;6237874;28;20204;-72
2021/09/16 04:21:33;;;;;;;2.40;2.30;;;;;;;11.12;87.50;102067.31;6238000;28;20406;-71
2021/09/16 04:24:58;;;;;;;2.25;2.03;;;;;;;11.10;87.41;102066.69;6204787;28;20570;-72
2021/09/16 04:28:16;;;;;;;2.10;2.10;;;;;;;11.28;86.30;102069.84;6195394;28;20236;-72
2021/09/16 04:31:55;;;;;;;2.85;2.10;;;;;;;11.24;86.71;102074.00;6139597;29;20209;-72
2021/09/16 04:35:18;;;;;;;2.47;2.38;;;;;;;11.40;86.65;102081.09;6142614;28;20315;-72
2021/09/16 04:38:40;;;;;;;2.08;2.08;;;;;;;11.42;86.76;102080.94;6237830;28;20174;-71
2021/09/16 04:42:02;;;;;;;2.35;2.25;;;;;;;11.40;85.68;102083.00;6237678;28;20178;-71
2021/09/16 04:45:27;;;;;;;2.55;2.35;;;;;;;11.49;85.43;102092.78;6212690;28;20417;-71
2021/09/16 04:48:51;;;;;;;2.20;2.10;;;;;;;11.60;83.86;102081.34;6237542;28;20242;-71
2021/09/16 04:52:16;;;;;;;3.03;1.90;;;;;;;11.58;84.72;102081.53;6212414;28;20228;-72
2021/09/16 04:55:53;;;;;;;2.55;1.80;;;;;;;11.56;80.97;102077.28;6139569;29;20212;-72
2021/09/16 04:59:21;;;;;;;2.03;2.03;;;;;;;11.64;81.48;102079.91;6093471;28;20267;-72
2021/09/16 05:02:43;;;;;;;2.33;1.85;;;;;;;11.69;80.20;102083.78;6237361;28;20508;-72
2021/09/16 05:06:07;;;;;;;1.80;1.80;;;;;;;11.71;81.06;102080.88;6237164;28;20209;-72
2021/09/16 05:09:28;;;;;;;1.80;1.80;;;;;;;11.75;81.88;102082.19;6237174;28;20232;-73
2021/09/16 05:12:51;;;;;;;1.70;1.60;;;;;;;11.77;82.53;102082.81;6237465;28;20194;-72
2021/09/16 05:16:09;;;;;;;1.80;1.80;;;;;;;11.72;80.40;102074.34;6236824;28;20255;-72
2021/09/16 05:19:34;;;;;;;3.90;1.70;;;;;;;11.71;79.71;102069.94;6233383;28;20212;-72
2021/09/16 05:22:57;;;;;;;1.48;1.48;;;;;;;11.84;79.62;102070.06;6237157;28;20178;-72
2021/09/16 05:26:16;;;;;;;2.08;1.80;;;;;;;11.81;79.23;102070.47;6233484;28;20271;-72
2021/09/16 05:29:34;;;;;;;2.08;1.92;;;;;;;11.89;79.00;102078.50;6194119;28;20201;-72
2021/09/16 05:32:59;;;;;;;3.42;1.35;;;;;;;12.01;78.11;102076.97;6230030;28;20201;-72
2021/09/16 05:36:18;;;;;;;2.72;1.75;;;;;;;11.91;76.47;102076.44;6235300;28;20206;-72
2021/09/16 05:39:41;;;;;;;1.77;1.60;;;;;;;11.87;75.85;102080.59;6236861;28;20178;-72
2021/09/16 05:43:20;;;;;;;1.50;1.50;;;;;;;11.85;75.23;102066.28;6236835;28;20268;-72
2021/09/16 05:46:48;;;;;;;2.03;1.70;;;;;;;11.86;75.22;102070.72;6163770;28;20248;-72
2021/09/16 05:50:24;;;;;;;2.65;1.50;;;;;;;11.97;74.12;102064.72;6236374;28;20352;-71
2021/09/16 05:54:09;;;;;;;1.27;1.27;;;;;;;11.99;74.25;102065.38;6358897;27;21232;-70
2021/09/16 05:57:50;;;;;;;1.98;1.40;;;;;;;11.94;74.88;102057.75;6333188;27;21192;-70
2021/09/16 06:01:17;;;;;;;2.47;1.48;;;;;;;11.95;73.57;102061.34;6334012;28;20199;-70
2021/09/16 06:04:42;;;;;;;2.30;2.20;;;;;;;12.05;74.07;102050.91;6314993;28;20528;-71
2021/09/16 06:08:20;;;;;;;1.92;1.38;;;;;;;12.05;73.69;102050.91;6332809;28;20240;-70
2021/09/16 06:11:39;;;;;;;1.40;1.30;;;;;;;12.12;73.00;102062.72;6332239;28;20308;-72
2021/09/16 06:14:59;;;;;;;1.50;1.40;;;;;;;12.19;72.31;102051.88;6330467;28;20240;-72
2021/09/16 06:18:37;;;;;;;4.95;1.77;;;;;;;12.19;72.37;102052.72;6332423;28;20229;-72
2021/09/16 06:22:02;;;;;;;4.22;1.35;;;;;;;12.16;72.06;102047.63;6332234;28;20412;-72
2021/09/16 06:25:37;;;;;;;3.17;1.63;;;;;;;12.17;71.60;102053.97;6332730;28;20206;-73
2021/09/16 06:28:59;;;;;;;2.38;1.60;;;;;;;12.17;70.28;102049.31;6332057;28;20217;-73
2021/09/16 06:32:23;;;;;;;5.53;1.90;;;;;;;12.15;70.58;102051.41;6332354;28;20506;-71
2021/09/16 06:35:44;;;;;;;5.78;1.60;;;;;;;12.04;69.92;102049.22;6332586;28;20211;-71
2021/09/16 06:38:48;;;;;;;1.55;1.55;;;;;;;12.18;69.64;102056.47;6332925;28;20187;-71
2021/09/16 06:41:53;;;;;;;2.80;1.50;;;;;;;12.19;69.01;102052.72;6331698;28;20494;-72
2021/09/16 06:44:57;;;;;;;3.00;1.42;;;;;;;12.21;68.63;102049.78;6331706;28;20199;-71
2021/09/16 06:48:03;;;;;;;3.85;1.73;;;;;;;12.34;68.45;102056.19;6332624;28;20193;-72
2021/09/16 06:51:08;;;;;;;5.40;1.60;;;;;;;12.46;68.22;102043.66;6332705;28;20250;-71
2021/09/16 06:54:32;;;;;;;1.40;1.40;;;;;;;12.42;68.06;102053.31;6332451;28;20190;-71
2021/09/16 06:57:36;;;;;;;8.00;1.60;;;;;;;12.48;67.53;102055.22;6331775;28;20420;-72
2021/09/16 07:00:41;;;;;;;3.13;1.50;;;;;;;12.55;67.03;102058.88;6331927;28;20265;-71
2021/09/16 07:03:47;;;;;;;13.13;1.80;;;;;;;12.66;66.16;102059.38;6332115;28;20244;-71
2021/09/16 07:06:52;;;;;;;1.70;1.60;;;;;;;12.75;66.38;102067.22;6327313;28;20188;-71
2021/09/16 07:09:57;;;;;;;3.53;1.83;;;;;;;12.79;65.63;102059.44;6315085;28;20184;-71
2021/09/16 07:13:07;;;;;;;1.70;1.60;;;;;;;12.69;66.41;102069.88;6314210;28;20383;-71
2021/09/16 07:16:13;;;;;;;3.38;1.52;;;;;;;12.64;68.77;102062.28;6314379;28;20370;-71
2021/09/16 07:19:19;;;;;;;1.88;1.75;;;;;;;12.63;66.75;102055.13;6315710;28;20229;-72
2021/09/16 07:22:23;;;;;;;4.13;1.80;;;;;;;12.85;65.70;102069.56;6315428;28;20191;-70
2021/09/16 07:25:27;;;;;;;7.50;2.15;;;;;;;12.86;66.24;102054.84;6315106;28;20183;-70
2021/09/16 07:28:35;;;;;;;2.00;1.90;;;;;;;12.94;65.69;102062.91;6313871;28;20410;-71
2021/09/16 07:31:40;;;;;;;4.70;1.50;;;;;;;12.95;66.01;102070.06;6314456;28;20219;-71
2021/09/16 07:34:45;;;;;;;1.75;1.60;;;;;;;13.06;65.33;102058.53;6315015;28;20221;-71
2021/09/16 07:37:49;;;;;;;1.90;1.40;;;;;;;12.87;65.90;102067.47;6314933;28;20211;-70
2021/09/16 07:40:54;;;;;;;3.97;1.40;;;;;;;13.02;65.68;102055.34;6314434;28;20187;-71
2021/09/16 07:43:58;;;;;;;1.52;1.50;;;;;;;12.84;66.01;102062.44;6314485;28;20184;-71
2021/09/16 07:47:05;;;;;;;1.75;1.52;;;;;;;12.97;65.70;102057.00;6314684;28;20187;-71
2021/09/16 07:50:12;;;;;;;2.60;1.30;;;;;;;13.01;65.78;102074.72;6313182;28;20184;-70
2021/09/16 07:53:17;;;;;;;8.40;1.70;;;;;;;13.04;65.27;102063.38;6313725;28;20184;-72
2021/09/16 07:56:21;;;;;;;2.15;1.25;;;;;;;12.99;65.38;102065.88;6314432;28;20235;-72
2021/09/16 07:59:25;;;;;;;1.20;1.20;;;;;;;13.05;64.68;102048.59;6314048;28;20184;-72
2021/09/16 08:02:29;;;;;;;2.58;1.25;;;;;;;13.06;64.75;102058.53;6314182;28;20270;-72
2021/09/16 08:05:35;;;;;;;6.00;1.63;;;;;;;13.08;64.68;102053.72;6313786;28;20183;-72
2021/09/16 08:08:40;;;;;;;4.78;1.30;;;;;;;13.10;64.37;102048.88;6314129;28;20194;-72
2021/09/16 08:11:45;;;;;;;2.08;1.20;;;;;;;13.20;62.48;102052.06;6314053;28;20188;-72
2021/09/16 08:14:49;;;;;;;3.28;1.40;;;;;;;13.12;63.26;102049.53;6313811;28;20218;-72
2021/09/16 08:17:54;;;;;;;2.17;1.40;;;;;;;13.11;63.45;102047.81;6312463;28;20445;-72
2021/09/16 08:20:59;;;;;;;1.25;1.23;;;;;;;13.10;63.04;102054.34;6313236;28;20183;-72
2021/09/16 08:24:05;;;;;;;2.58;1.33;;;;;;;13.10;62.44;102046.13;6312546;28;20411;-72
2021/09/16 08:27:10;;;;;;;5.20;1.65;;;;;;;13.17;62.63;102041.53;6312397;28;20240;-72
2021/09/16 08:30:14;;;;;;;16.63;1.70;;;;;;;13.23;62.11;102037.09;6313740;28;20263;-72
2021/09/16 08:33:21;;;;;;;3.38;1.40;;;;;;;13.30;61.42;102041.56;6312468;28;20188;-72
2021/09/16 08:36:28;;;;;;;1.63;1.52;;;;;;;13.33;60.67;102035.66;6312162;28;20425;-72
2021/09/16 08:39:32;;;;;;;1.30;1.30;;;;;;;13.22;61.59;102050.00;6312121;28;20355;-72
2021/09/16 08:42:42;;;;;;;1.48;1.38;;;;;;;13.32;60.97;102050.44;6313540;28;20183;-72
2021/09/16 08:45:48;;;;;;;4.13;1.48;;;;;;;13.25;59.72;102038.59;6312260;28;20475;-71
2021/09/16 08:48:52;;;;;;;2.55;1.15;;;;;;;13.12;59.72;102033.09;6313218;28;20195;-72
2021/09/16 08:51:58;;;;;;;1.33;1.33;;;;;;;13.18;60.45;102033.09;6313368;28;20184;-72
2021/09/16 08:55:02;;;;;;;4.57;1.40;;;;;;;13.18;60.77;102043.22;6312025;28;20204;-72
2021/09/16 08:58:09;;;;;;;1.48;1.20;;;;;;;13.32;60.51;102044.97;6312012;28;20249;-72
2021/09/16 09:01:18;;;;;;;1.30;1.30;;;;;;;13.23;59.91;102035.22;6311521;28;20475;-72
2021/09/16 09:04:23;;;;;;;3.72;1.42;;;;;;;13.45;59.96;102045.00;6311444;28;20443;-72
2021/09/16 09:07:38;;;;;;;4.10;1.40;;;;;;;13.42;59.82;102028.13;6312814;28;20247;-72
2021/09/16 09:10:45;;;;;;;1.23;1.23;;;;;;;13.28;60.30;102019.00;6311434;28;20499;-72
2021/09/16 09:13:57;;;;;;;3.13;1.58;;;;;;;13.43;60.41;102032.56;6312432;28;20183;-72
2021/09/16 09:17:02;;;;;;;1.73;1.40;;;;;;;13.47;59.71;102031.94;6312309;28;20211;-72
2021/09/16 09:20:11;;;;;;;1.23;1.23;;;;;;;13.32;60.18;102034.00;6311286;28;20210;-72
2021/09/16 09:23:26;;;;;;;2.92;1.40;;;;;;;13.15;59.61;102039.00;6312613;28;20188;-72
2021/09/16 09:26:32;;;;;;;3.15;1.30;;;;;;;13.23;59.88;102018.78;6311969;28;20184;-72
2021/09/16 09:29:36;;;;;;;5.93;1.52;;;;;;;13.36;60.25;102024.31;6311462;28;20409;-72
2021/09/16 09:32:51;;;;;;;5.88;1.70;;;;;;;13.50;58.84;102026.03;6312359;28;20227;-72
2021/09/16 09:35:56;;;;;;;8.30;1.50;;;;;;;13.56;59.02;102033.41;6311409;28;20183;-72
2021/09/16 09:39:02;;;;;;;5.72;1.60;;;;;;;13.52;59.53;102023.94;6312380;28;20217;-72
2021/09/16 09:42:23;;;;;;;4.60;2.42;;;;;;;13.49;59.15;102035.31;6310901;28;20369;-72
2021/09/16 09:45:27;;;;;;;2.05;1.38;;;;;;;13.38;59.31;102033.16;6311862;28;20184;-72
2021/09/16 09:48:33;;;;;;;3.60;1.63;;;;;;;13.35;59.30;102014.41;6312186;28;20187;-72
2021/09/16 09:51:40;;;;;;;5.20;1.45;;;;;;;13.38;59.59;102022.19;6312184;28;20191;-72
2021/09/16 09:54:46;;;;;;;1.40;1.40;;;;;;;13.27;58.87;102014.59;6311237;28;20184;-72
2021/09/16 09:58:02;;;;;;;10.48;1.60;;;;;;;13.33;59.30;102019.22;6311977;28;20207;-71
2021/09/16 10:01:26;;;;;;;2.08;1.27;;;;;;;13.38;59.05;102011.22;6311798;28;20195;-72
2021/09/16 10:04:31;;;;;;;4.38;2.00;;;;;;;13.30;59.02;102008.66;6311768;28;20247;-72
2021/09/16 10:07:38;;;;;;;1.95;1.70;;;;;;;13.39;57.29;102012.94;6311928;28;20191;-71
2021/09/16 10:10:48;;;;;;;1.40;1.30;;;;;;;13.22;57.25;102006.16;6310581;28;20506;-71
2021/09/16 10:13:52;;;;;;;1.60;1.48;;;;;;;13.40;56.88;102003.66;6310678;28;20183;-71
2021/09/16 10:16:57;;;;;;;2.35;1.50;;;;;;;13.27;57.94;102006.38;6311910;28;20184;-71
2021/09/16 10:20:03;;;;;;;2.15;1.40;;;;;;;13.31;58.35;102010.38;6312207;28;20207;-72
2021/09/16 10:23:31;;;;;;;1.50;1.40;;;;;;;13.27;58.91;102009.09;6311476;28;20226;-72
2021/09/16 10:26:53;;;;;;;1.63;1.60;;;;;;;13.44;59.43;102010.41;6311467;28;20184;-72
2021/09/16 10:30:40;;;;;;;2.80;1.48;;;;;;;13.38;59.28;102004.91;6310388;28;20206;-71
2021/09/16 10:34:44;;;;;;;2.78;1.70;;;;;;;13.42;59.52;102012.50;6310600;28;20371;-72
2021/09/16 10:38:18;;;;;;;2.00;1.73;;;;;;;13.46;60.14;102019.25;6310453;28;20208;-71
2021/09/16 10:41:25;;;;;;;1.50;1.38;;;;;;;13.39;59.75;102017.56;6310301;28;20184;-71
2021/09/16 10:44:31;;;;;;;3.10;1.45;;;;;;;13.28;59.37;102027.22;6315984;28;20184;-71
2021/09/16 10:47:36;;;;;;;2.22;1.50;;;;;;;13.46;59.02;102024.75;6314942;28;20392;-71
2021/09/16 10:50:43;;;;;;;3.63;1.67;;;;;;;13.47;58.03;102020.13;6316141;28;20183;-71
2021/09/16 10:53:48;;;;;;;2.25;1.60;;;;;;;13.50;57.56;102020.56;6314595;28;20206;-72
2021/09/16 10:56:59;;;;;;;1.80;1.70;;;;;;;13.46;57.54;102027.47;6315176;28;20442;-71
2021/09/16 11:00:17;;;;;;;1.67;1.50;;;;;;;13.33;57.84;102024.72;6314754;28;20215;-71
2021/09/16 11:03:58;;;;;;;6.50;1.40;;;;;;;13.47;57.86;102026.44;6315097;28;20183;-72
2021/09/16 11:07:49;;;;;;;8.45;1.60;;;;;;;13.46;57.80;102008.28;6315715;28;20188;-71
2021/09/16 11:10:59;;;;;;;4.25;1.60;;;;;;;13.39;58.89;102007.44;6315479;28;20191;-71
2021/09/16 11:14:05;;;;;;;8.63;1.63;;;;;;;13.51;59.02;102000.28;6315201;28;20191;-71
2021/09/16 11:17:13;;;;;;;2.63;1.40;;;;;;;13.40;60.34;101986.38;6315497;28;20184;-71
2021/09/16 11:20:21;;;;;;;5.45;1.63;;;;;;;13.62;60.16;101990.59;6314092;28;20211;-71
2021/09/16 11:23:35;;;;;;;1.60;1.50;;;;;;;13.39;61.53;101980.03;6314605;28;20183;-71
2021/09/16 11:26:39;;;;;;;4.28;1.38;;;;;;;13.25;62.56;101978.28;6315309;28;20184;-71
2021/09/16 11:30:07;;;;;;;4.50;1.20;;;;;;;13.30;63.15;101970.28;6314482;28;20266;-71
2021/09/16 11:33:25;;;;;;;1.35;1.33;;;;;;;13.31;63.18;101977.47;6314970;28;20184;-71
2021/09/16 11:36:38;;;;;;;4.82;1.45;;;;;;;13.34;63.58;101988.03;6314049;28;20183;-71
2021/09/16 11:39:42;;;;;;;1.27;1.20;;;;;;;13.29;64.13;101979.59;6314865;28;20222;-71
2021/09/16 11:42:49;;;;;;;1.58;1.58;;;;;;;13.28;64.07;101983.38;6314749;28;20250;-72
2021/09/16 11:45:53;;;;;;;1.70;1.13;;;;;;;13.27;64.13;101970.72;6314371;28;20225;-71
2021/09/16 11:49:03;;;;;;;2.15;1.30;;;;;;;13.21;64.23;101977.03;6339975;28;20194;-71
2021/09/16 11:52:09;;;;;;;7.30;1.73;;;;;;;13.46;63.40;101969.91;6339511;28;20221;-72
2021/09/16 11:55:15;;;;;;;4.70;1.30;;;;;;;13.47;63.66;101982.56;6338902;28;20241;-72
2021/09/16 11:58:26;;;;;;;5.68;1.20;;;;;;;13.32;63.16;101972.84;6339734;28;20193;-72
2021/09/16 12:01:30;;;;;;;1.38;1.23;;;;;;;13.34;63.66;101982.56;6339298;28;20214;-71
2021/09/16 12:04:45;;;;;;;4.72;1.40;;;;;;;13.34;62.89;101971.59;6338250;28;20530;-72
2021/09/16 12:07:50;;;;;;;3.60;1.40;;;;;;;13.56;61.98;101978.56;6339144;28;20220;-72
2021/09/16 12:10:58;;;;;;;1.58;1.20;;;;;;;13.58;62.43;101979.22;6339356;28;20198;-72
2021/09/16 12:14:04;;;;;;;7.07;1.80;;;;;;;13.36;62.86;101974.97;6337968;28;20371;-71
2021/09/16 12:17:09;;;;;;;1.95;1.30;;;;;;;13.25;63.45;101972.00;6339142;28;20183;-71
2021/09/16 12:20:15;;;;;;;3.20;1.25;;;;;;;13.37;62.86;101964.84;6338985;28;20214;-71
2021/09/16 12:23:37;;;;;;;3.33;1.10;;;;;;;13.51;62.50;101961.91;6338683;28;20183;-71
2021/09/16 12:26:56;;;;;;;2.10;1.35;;;;;;;13.30;62.94;101975.78;6338603;28;20182;-71
2021/09/16 12:30:21;;;;;;;3.53;1.25;;;;;;;13.19;62.71;101968.19;6337586;28;20202;-71
2021/09/16 12:33:43;;;;;;;1.20;1.20;;;;;;;13.11;63.34;101976.59;6337441;28;20474;-71
2021/09/16 12:37:11;;;;;;;18.25;2.05;;;;;;;13.35;62.53;101962.31;6337305;28;20218;-72
2021/09/16 12:40:47;;;;;;;1.15;1.10;;;;;;;13.42;62.22;101974.13;6337448;28;20443;-71
2021/09/16 12:44:15;;;;;;;1.42;1.13;;;;;;;13.39;62.42;101963.59;6337049;28;20477;-71
2021/09/16 12:47:44;;;;;;;1.10;1.10;;;;;;;13.36;62.64;101965.88;6338433;28;20183;-71
2021/09/16 12:51:08;;;;;;;1.88;1.10;;;;;;;13.30;63.07;101959.34;6337160;28;20244;-71
2021/09/16 12:54:46;;;;;;;6.68;1.50;;;;;;;13.37;62.82;101965.69;6337050;28;20506;-71
2021/09/16 12:58:10;;;;;;;2.35;1.25;;;;;;;13.12;62.17;101961.84;6338262;28;20218;-72
2021/09/16 13:01:36;;;;;;;2.78;1.05;;;;;;;13.10;62.50;101958.44;6336882;28;20226;-71
2021/09/16 13:05:03;;;;;;;11.90;1.40;;;;;;;13.13;62.30;101958.03;6336189;28;20203;-71
2021/09/16 13:08:27;;;;;;;3.10;1.13;;;;;;;13.20;62.16;101961.63;6337256;28;20233;-71
2021/09/16 13:11:48;;;;;;;1.27;1.17;;;;;;;13.40;61.35;101943.34;6336572;28;20199;-72
2021/09/16 13:15:10;;;;;;;5.32;1.25;;;;;;;13.44;61.39;101941.88;6337956;28;20183;-71
2021/09/16 13:18:37;;;;;;;1.67;1.20;;;;;;;13.25;61.42;101945.41;6336574;28;20202;-71
2021/09/16 13:21:57;;;;;;;2.00;1.17;;;;;;;13.13;61.26;101952.56;6336369;28;20225;-71
2021/09/16 13:25:22;;;;;;;1.25;1.20;;;;;;;13.10;61.05;101955.69;6336312;28;20236;-73
2021/09/16 13:28:33;;;;;;;2.17;1.42;;;;;;;13.16;61.69;101953.00;6337292;28;20183;-70
2021/09/16 13:31:38;;;;;;;1.25;1.25;;;;;;;13.02;60.91;101955.84;6337220;28;20187;-71
2021/09/16 13:34:42;;;;;;;3.67;1.25;;;;;;;13.02;59.97;101944.91;6337087;28;20220;-71
2021/09/16 13:37:47;;;;;;;1.73;1.40;;;;;;;13.02;59.79;101950.38;6336649;28;20260;-71
2021/09/16 13:40:54;;;;;;;2.67;1.30;;;;;;;13.01;59.68;101944.06;6335948;28;20210;-71
2021/09/16 13:44:00;;;;;;;1.88;1.67;;;;;;;13.08;58.99;101939.47;6337131;28;20182;-72
2021/09/16 13:47:18;;;;;;;1.38;1.38;;;;;;;13.18;59.28;101933.59;6336854;28;20191;-71
2021/09/16 13:50:42;;;;;;;3.30;1.40;;;;;;;13.09;58.93;101930.22;6336468;28;20179;-71
2021/09/16 13:54:18;;;;;;;4.78;1.35;;;;;;;13.04;58.96;101924.50;6258997;28;20213;-71
2021/09/16 13:57:23;;;;;;;18.38;2.05;;;;;;;13.30;58.38;101926.44;6259140;28;20228;-72
2021/09/16 14:00:28;;;;;;;1.33;1.33;;;;;;;13.01;58.58;101930.38;6332684;28;20222;-71
2021/09/16 14:03:34;;;;;;;1.40;1.40;;;;;;;12.89;59.21;101917.50;6335698;28;20471;-71
2021/09/16 14:06:38;;;;;;;1.35;1.35;;;;;;;13.01;59.02;101918.56;6336705;28;20182;-71
2021/09/16 14:09:43;;;;;;;2.85;1.30;;;;;;;13.05;59.06;101920.69;6335737;28;20218;-72
2021/09/16 14:12:48;;;;;;;1.20;1.20;;;;;;;13.07;58.14;101915.03;6335951;28;20186;-72
2021/09/16 14:15:53;;;;;;;7.97;1.40;;;;;;;13.23;57.75;101920.13;6336431;28;20214;-71
2021/09/16 14:18:58;;;;;;;1.15;1.15;;;;;;;13.05;59.13;101908.88;6339401;28;20250;-71
2021/09/16 14:22:02;;;;;;;2.03;1.23;;;;;;;12.98;58.49;101905.28;6340380;28;20267;-72
2021/09/16 14:25:08;;;;;;;5.07;1.33;;;;;;;13.05;57.90;101911.59;6341815;28;20187;-71
2021/09/16 14:28:15;;;;;;;1.38;1.35;;;;;;;12.95;58.38;101905.69;6341841;28;20273;-71
2021/09/16 14:31:20;;;;;;;6.00;1.42;;;;;;;13.02;58.43;101918.34;6340349;28;20247;-71
2021/09/16 14:34:24;;;;;;;1.10;1.10;;;;;;;12.78;58.25;101909.84;6341080;28;20193;-72
2021/09/16 14:37:28;;;;;;;1.50;1.30;;;;;;;12.88;58.56;101915.78;6341064;28;20268;-72
2021/09/16 14:40:37;;;;;;;1.45;1.38;;;;;;;12.86;58.35;101918.75;6340504;28;20217;-71
2021/09/16 14:44:01;;;;;;;1.25;1.25;;;;;;;12.83;58.96;101918.31;6341090;28;20246;-71
2021/09/16 14:47:08;;;;;;;1.27;1.23;;;;;;;12.83;58.66;101901.88;6340177;28;20189;-72
2021/09/16 14:50:12;;;;;;;5.28;1.67;;;;;;;13.04;58.70;101909.94;6340813;28;20187;-71